Time;durP1;ratioP1;P1;durP2;ratioP2;P2;SDS_P1;SDS_P2;PMS_P1;PMS_P2;Temp;Humidity;BMP_temperature;BMP_pressure;BME280_temperature;BME280_humidity;BME280_pressure;Samples;Min_cycle;Max_cycle;Signal;HPM_P1;HPM_P2
2023/08/29 00:01:40;;;;;;;;;9.00;9.00;;;;;13.73;73.67;99442.38;5094329;28;8816;-58
2023/08/29 00:04:09;;;;;;;;;12.50;12.00;;;;;13.72;74.04;99450.53;5094375;28;8823;-57
2023/08/29 00:06:37;;;;;;;;;14.50;12.75;;;;;13.70;73.59;99439.16;5094339;28;8874;-56
2023/08/29 00:09:04;;;;;;;;;13.00;12.50;;;;;13.67;73.48;99434.13;5094845;28;8862;-57
2023/08/29 00:11:32;;;;;;;;;9.25;8.75;;;;;13.63;73.98;99427.38;5094577;28;8839;-58
2023/08/29 00:14:00;;;;;;;;;8.00;7.00;;;;;13.57;73.61;99428.84;5093903;28;8833;-57
2023/08/29 00:16:27;;;;;;;;;15.25;13.00;;;;;13.53;74.31;99414.06;5095252;28;8988;-57
2023/08/29 00:18:55;;;;;;;;;12.00;11.00;;;;;13.51;74.55;99429.44;5094036;28;8822;-55
2023/08/29 00:21:22;;;;;;;;;9.25;8.00;;;;;13.49;73.82;99430.59;5094070;28;8821;-58
2023/08/29 00:23:50;;;;;;;;;12.75;12.00;;;;;13.47;74.47;99432.59;5094522;28;9511;-59
2023/08/29 00:26:18;;;;;;;;;9.50;9.50;;;;;13.46;74.10;99437.13;5093802;28;8840;-58
2023/08/29 00:28:46;;;;;;;;;10.75;10.00;;;;;13.47;74.00;99429.91;5093369;28;8822;-59
2023/08/29 00:31:14;;;;;;;;;12.50;12.00;;;;;13.47;74.37;99424.56;5093646;28;8977;-58
2023/08/29 00:33:42;;;;;;;;;7.00;6.00;;;;;13.46;74.52;99418.38;5093726;28;8865;-59
2023/08/29 00:36:09;;;;;;;;;11.75;10.50;;;;;13.45;74.33;99426.56;5094019;28;8852;-58
2023/08/29 00:38:37;;;;;;;;;14.50;13.00;;;;;13.42;73.93;99422.34;5095706;28;8818;-58
2023/08/29 00:41:04;;;;;;;;;13.50;11.00;;;;;13.41;74.34;99419.81;5098144;28;8821;-59
2023/08/29 00:43:32;;;;;;;;;8.00;7.00;;;;;13.40;74.06;99423.50;5097624;28;8834;-57
2023/08/29 00:46:00;;;;;;;;;13.75;13.25;;;;;13.39;74.04;99409.28;5098285;28;8858;-58
2023/08/29 00:48:27;;;;;;;;;14.50;12.50;;;;;13.40;74.30;99421.66;5097802;28;8876;-59
2023/08/29 00:50:55;;;;;;;;;8.00;7.50;;;;;13.42;74.13;99429.50;5097753;28;8818;-59
2023/08/29 00:53:22;;;;;;;;;14.00;12.75;;;;;13.43;74.48;99426.69;5097794;28;8822;-59
2023/08/29 00:55:50;;;;;;;;;12.00;11.50;;;;;13.44;74.11;99430.22;5098118;28;8826;-58
2023/08/29 00:58:18;;;;;;;;;12.25;12.25;;;;;13.44;74.16;99439.06;5097116;28;8826;-56
2023/08/29 01:00:45;;;;;;;;;10.00;9.00;;;;;13.44;73.94;99427.56;5096845;28;8834;-59
2023/08/29 01:03:13;;;;;;;;;13.00;11.50;;;;;13.43;73.57;99420.53;5097652;28;8837;-59
2023/08/29 01:05:41;;;;;;;;;10.50;9.75;;;;;13.41;73.84;99419.81;5097294;28;9569;-59
2023/08/29 01:08:08;;;;;;;;;12.50;12.25;;;;;13.38;74.20;99425.47;5097151;28;8838;-58
2023/08/29 01:10:36;;;;;;;;;10.00;10.00;;;;;13.39;74.38;99429.84;5097591;28;8814;-57
2023/08/29 01:13:04;;;;;;;;;10.50;9.50;;;;;13.37;74.19;99421.13;5097107;28;8837;-57
2023/08/29 01:15:32;;;;;;;;;11.75;11.25;;;;;13.37;73.85;99421.13;5097380;28;8826;-59
2023/08/29 01:17:59;;;;;;;;;13.00;11.50;;;;;13.39;73.54;99421.81;5097860;28;8820;-59
2023/08/29 01:20:27;;;;;;;;;15.00;13.00;;;;;13.39;73.82;99421.81;5097929;28;8815;-57
2023/08/29 01:22:55;;;;;;;;;12.25;12.00;;;;;13.37;74.39;99421.94;5097010;28;8831;-59
2023/08/29 01:25:40;;;;;;;;;12.00;10.00;;;;;13.38;74.06;99425.47;5097099;28;8815;-57
2023/08/29 01:28:07;;;;;;;;;14.50;12.25;;;;;13.37;74.04;99437.19;5097002;28;8800;-58
2023/08/29 01:30:35;;;;;;;;;9.25;9.25;;;;;13.36;74.54;99435.50;5097207;28;8843;-58
2023/08/29 01:33:03;;;;;;;;;7.00;6.50;;;;;13.38;74.26;99444.19;5097219;28;9520;-59
2023/08/29 01:35:31;;;;;;;;;10.75;10.50;;;;;13.40;74.31;99448.41;5096854;28;8950;-59
2023/08/29 01:37:58;;;;;;;;;10.00;10.00;;;;;13.39;74.54;99446.72;5097176;28;8834;-59
2023/08/29 01:40:26;;;;;;;;;13.50;11.50;;;;;13.40;73.87;99437.72;5096984;28;8838;-59
2023/08/29 01:42:54;;;;;;;;;12.50;10.00;;;;;13.39;74.41;99435.19;5096966;28;8838;-58
2023/08/29 01:45:21;;;;;;;;;12.25;12.25;;;;;13.36;74.52;99439.00;5096180;28;8840;-59
2023/08/29 01:47:49;;;;;;;;;13.00;12.75;;;;;13.34;73.80;99453.50;5096493;28;8942;-60
2023/08/29 01:50:17;;;;;;;;;8.50;8.50;;;;;13.32;74.37;99460.84;5095906;28;8983;-59
2023/08/29 01:52:45;;;;;;;;;9.00;8.50;;;;;13.29;73.90;99463.84;5096376;28;8904;-59
2023/08/29 01:55:12;;;;;;;;;11.00;9.75;;;;;13.27;74.69;99469.31;5096692;28;8840;-57
2023/08/29 01:57:40;;;;;;;;;12.50;11.50;;;;;13.23;74.64;99477.81;5096194;28;8824;-59
2023/08/29 02:00:07;;;;;;;;;12.75;11.50;;;;;13.24;74.27;99482.16;5096143;28;8885;-59
2023/08/29 02:02:35;;;;;;;;;14.00;11.00;;;;;13.26;74.00;99486.38;5095864;28;8816;-59
2023/08/29 02:05:02;;;;;;;;;16.25;14.50;;;;;13.28;74.74;99491.56;5095726;28;8799;-59
2023/08/29 02:07:30;;;;;;;;;9.50;9.25;;;;;13.20;74.39;99484.28;5096394;28;8835;-58
2023/08/29 02:09:57;;;;;;;;;5.50;5.50;;;;;13.15;74.42;99491.06;5096616;28;8827;-59
2023/08/29 02:12:25;;;;;;;;;9.25;9.00;;;;;13.08;74.83;99490.81;5096634;28;8806;-59
2023/08/29 02:14:53;;;;;;;;;7.67;7.00;;;;;13.01;74.67;99484.41;5096436;28;8841;-59
2023/08/29 02:17:20;;;;;;;;;7.00;6.50;;;;;12.95;75.23;99479.66;5096367;28;8826;-59
2023/08/29 02:19:48;;;;;;;;;10.00;10.00;;;;;12.92;74.47;99482.56;5096039;28;8838;-59
2023/08/29 02:22:16;;;;;;;;;9.75;9.50;;;;;12.88;75.01;99486.53;5096076;28;8814;-56
2023/08/29 02:24:47;;;;;;;;;8.00;8.00;;;;;12.88;74.92;99483.88;5095920;28;9543;-59
2023/08/29 02:27:14;;;;;;;;;5.00;4.00;;;;;12.89;74.68;99496.25;5096754;28;8841;-59
2023/08/29 02:29:42;;;;;;;;;10.50;9.75;;;;;12.97;74.81;99500.84;5095353;28;8857;-56
2023/08/29 02:32:10;;;;;;;;;10.00;9.75;;;;;13.02;74.66;99502.13;5095597;28;8849;-56
2023/08/29 02:34:37;;;;;;;;;11.75;11.50;;;;;13.07;74.08;99497.16;5095602;28;8826;-59
2023/08/29 02:37:05;;;;;;;;;15.00;13.00;;;;;13.12;73.96;99486.88;5095486;28;8826;-59
2023/08/29 02:39:33;;;;;;;;;13.75;13.75;;;;;13.14;73.96;99471.50;5095501;28;8841;-59
2023/08/29 02:42:00;;;;;;;;;10.50;9.00;;;;;13.16;73.85;99471.38;5095628;28;8814;-57
2023/08/29 02:44:28;;;;;;;;;15.50;15.50;;;;;13.19;73.76;99466.56;5096310;28;9573;-59
2023/08/29 02:46:55;;;;;;;;;3.25;3.25;;;;;13.24;74.05;99461.63;5095148;28;9523;-59
2023/08/29 02:49:23;;;;;;;;;6.25;5.00;;;;;13.29;73.95;99461.16;5096602;28;8818;-59
2023/08/29 02:51:51;;;;;;;;;15.00;11.00;;;;;13.32;73.70;99458.19;5095529;28;8826;-59
2023/08/29 02:54:18;;;;;;;;;12.75;12.00;;;;;13.35;74.54;99447.19;5095239;28;8853;-59
2023/08/29 02:56:46;;;;;;;;;10.50;10.50;;;;;13.36;73.78;99441.66;5095699;28;8818;-60
2023/08/29 02:59:14;;;;;;;;;11.50;9.25;;;;;13.36;73.57;99447.03;5095644;28;9519;-59
2023/08/29 03:01:41;;;;;;;;;13.25;12.25;;;;;13.37;73.79;99447.88;5094809;28;8832;-59
2023/08/29 03:04:09;;;;;;;;;17.00;16.00;;;;;13.35;73.61;99440.00;5095676;28;8867;-57
2023/08/29 03:06:37;;;;;;;;;15.00;14.00;;;;;13.34;73.59;99437.47;5095145;28;8818;-58
2023/08/29 03:09:06;;;;;;;;;7.00;7.00;;;;;13.34;73.83;99445.50;5095101;28;8829;-56
2023/08/29 03:11:34;;;;;;;;;14.00;13.00;;;;;13.33;73.78;99441.13;5095536;28;8826;-58
2023/08/29 03:14:03;;;;;;;;;10.50;10.50;;;;;13.33;74.12;99433.09;5095048;28;8795;-59
2023/08/29 03:16:31;;;;;;;;;11.75;11.00;;;;;13.31;73.87;99424.41;5095273;28;8844;-64
2023/08/29 03:18:58;;;;;;;;;7.50;7.00;;;;;13.30;74.03;99431.56;5094707;28;8945;-59
2023/08/29 03:21:27;;;;;;;;;9.50;7.75;;;;;13.28;73.95;99430.91;5094778;28;8934;-58
2023/08/29 03:23:55;;;;;;;;;12.00;11.50;;;;;13.27;73.84;99423.00;5094818;28;8828;-58
2023/08/29 03:26:22;;;;;;;;;10.00;10.00;;;;;13.26;74.08;99424.00;5094617;28;8835;-58
2023/08/29 03:28:50;;;;;;;;;10.00;10.00;;;;;13.25;73.84;99409.81;5094155;28;8820;-56
2023/08/29 03:31:17;;;;;;;;;14.00;13.00;;;;;13.24;73.85;99407.28;5093942;28;8862;-57
2023/08/29 03:33:45;;;;;;;;;7.00;6.00;;;;;13.20;74.18;99409.41;5094689;28;9513;-58
2023/08/29 03:36:14;;;;;;;;;11.00;9.75;;;;;13.16;74.36;99404.53;5094572;28;8842;-56
2023/08/29 03:38:41;;;;;;;;;10.50;10.00;;;;;13.12;74.83;99404.00;5094488;28;9631;-57
2023/08/29 03:41:09;;;;;;;;;6.50;6.25;;;;;13.09;74.50;99400.78;5094647;28;8816;-59
2023/08/29 03:43:37;;;;;;;;;12.25;10.00;;;;;13.07;74.37;99408.13;5094550;28;8815;-58
2023/08/29 03:46:04;;;;;;;;;12.75;11.50;;;;;13.02;74.99;99402.38;5095013;28;8894;-58
2023/08/29 03:48:32;;;;;;;;;7.00;6.00;;;;;13.03;74.62;99401.38;5094716;28;8840;-59
2023/08/29 03:51:02;;;;;;;;;9.00;8.00;;;;;13.00;74.97;99396.34;5094451;28;8904;-57
2023/08/29 03:53:30;;;;;;;;;11.75;7.50;;;;;12.95;74.60;99398.63;5094232;28;8812;-59
2023/08/29 03:55:58;;;;;;;;;9.25;9.25;;;;;12.88;75.19;99397.50;5094016;28;8820;-57
2023/08/29 03:58:25;;;;;;;;;7.00;7.00;;;;;12.81;74.97;99396.41;5094075;28;8812;-59
2023/08/29 04:00:53;;;;;;;;;10.00;10.00;;;;;12.76;75.49;99404.06;5094151;28;8811;-57
2023/08/29 04:03:20;;;;;;;;;14.75;11.25;;;;;12.69;75.54;99405.63;5093410;28;8888;-57
2023/08/29 04:05:48;;;;;;;;;8.75;8.50;;;;;12.66;75.07;99409.44;5095151;28;8792;-58
2023/08/29 04:08:16;;;;;;;;;10.50;9.25;;;;;12.64;75.85;99410.56;5094439;28;8828;-56
2023/08/29 04:10:44;;;;;;;;;13.00;12.50;;;;;12.62;76.01;99415.22;5094347;28;9501;-57
2023/08/29 04:13:12;;;;;;;;;12.00;11.00;;;;;12.60;75.48;99414.53;5095836;28;8803;-56
2023/08/29 04:15:39;;;;;;;;;11.50;11.00;;;;;12.58;75.56;99416.50;5098023;28;8996;-58
2023/08/29 04:18:07;;;;;;;;;10.75;9.75;;;;;12.57;75.60;99412.16;5098590;28;9547;-58
2023/08/29 04:20:36;;;;;;;;;11.00;10.25;;;;;12.55;75.68;99408.78;5098315;28;8853;-57
2023/08/29 04:23:04;;;;;;;;;15.25;14.00;;;;;12.56;75.47;99413.13;5098222;28;8826;-59
2023/08/29 04:25:31;;;;;;;;;15.00;14.50;;;;;12.58;75.77;99405.81;5097461;28;8956;-56
2023/08/29 04:27:59;;;;;;;;;12.50;12.50;;;;;12.63;75.49;99403.56;5097928;28;8822;-57
2023/08/29 04:30:27;;;;;;;;;16.00;14.25;;;;;12.68;74.73;99403.97;5097633;28;8814;-57
2023/08/29 04:32:55;;;;;;;;;17.75;15.25;;;;;12.73;74.56;99399.84;5097962;28;8838;-57
2023/08/29 04:35:22;;;;;;;;;13.00;12.50;;;;;12.79;75.13;99401.06;5097637;28;8837;-59
2023/08/29 04:37:50;;;;;;;;;16.00;15.25;;;;;12.84;75.02;99394.28;5097818;28;8829;-59
2023/08/29 04:40:18;;;;;;;;;15.75;15.50;;;;;12.89;74.60;99392.00;5097951;28;8966;-59
2023/08/29 04:42:45;;;;;;;;;7.50;5.50;;;;;12.93;74.54;99404.06;5097215;28;8968;-59
2023/08/29 04:45:13;;;;;;;;;13.00;13.00;;;;;12.96;74.68;99394.94;5097401;28;8814;-58
2023/08/29 04:47:41;;;;;;;;;19.50;14.50;;;;;12.99;74.63;99398.16;5097004;28;8834;-59
2023/08/29 04:50:08;;;;;;;;;11.25;9.25;;;;;12.99;74.19;99387.47;5097042;28;8837;-59
2023/08/29 04:52:36;;;;;;;;;15.50;13.50;;;;;12.99;74.87;99389.31;5097180;28;8822;-57
2023/08/29 04:55:05;;;;;;;;;14.75;13.25;;;;;12.97;74.47;99391.28;5097215;28;8830;-57
2023/08/29 04:57:33;;;;;;;;;15.75;14.00;;;;;12.97;74.54;99391.28;5096561;28;8834;-59
2023/08/29 05:00:01;;;;;;;;;15.50;13.50;;;;;12.99;74.84;99387.47;5097456;28;8840;-59
2023/08/29 05:02:28;;;;;;;;;16.00;15.00;;;;;13.02;74.65;99389.00;5097562;28;9554;-58
2023/08/29 05:04:57;;;;;;;;;13.50;12.50;;;;;13.05;74.48;99386.06;5097357;28;8850;-58
2023/08/29 05:07:25;;;;;;;;;12.25;10.50;;;;;13.09;74.40;99395.44;5097139;28;8852;-57
2023/08/29 05:09:52;;;;;;;;;18.00;16.50;;;;;13.12;74.32;99384.44;5096700;28;8829;-57
2023/08/29 05:12:20;;;;;;;;;6.50;4.75;;;;;13.15;74.70;99389.50;5096802;28;8838;-57
2023/08/29 05:14:48;;;;;;;;;14.75;13.00;;;;;13.18;74.70;99381.16;5095827;28;8866;-59
2023/08/29 05:17:16;;;;;;;;;9.00;8.50;;;;;13.20;74.05;99388.03;5095966;28;8861;-57
2023/08/29 05:19:44;;;;;;;;;15.25;14.00;;;;;13.22;74.23;99387.88;5095566;28;8833;-57
2023/08/29 05:22:12;;;;;;;;;16.25;15.25;;;;;13.24;74.59;99391.25;5095471;28;8822;-58
2023/08/29 05:24:40;;;;;;;;;16.00;15.00;;;;;13.26;74.36;99392.78;5093752;28;8834;-57
2023/08/29 05:27:07;;;;;;;;;7.50;7.00;;;;;13.28;74.59;99387.28;5095860;28;9519;-59
2023/08/29 05:29:35;;;;;;;;;10.00;9.00;;;;;13.33;74.19;99390.31;5095431;28;8830;-58
2023/08/29 05:32:03;;;;;;;;;13.25;12.75;;;;;13.37;74.59;99384.50;5095873;28;8856;-59
2023/08/29 05:34:32;;;;;;;;;19.50;18.75;;;;;13.44;73.83;99387.44;5096304;28;8826;-58
2023/08/29 05:37:00;;;;;;;;;15.50;13.00;;;;;13.48;73.83;99394.13;5096277;28;8826;-60
2023/08/29 05:39:27;;;;;;;;;15.00;13.00;;;;;13.52;73.32;99391.00;5096281;28;9541;-59
2023/08/29 05:41:55;;;;;;;;;19.00;18.50;;;;;13.57;73.34;99395.88;5095331;28;8854;-59
2023/08/29 05:44:23;;;;;;;;;15.25;15.00;;;;;13.61;73.32;99394.59;5095524;28;8834;-59
2023/08/29 05:46:50;;;;;;;;;16.50;15.75;;;;;13.65;73.68;99398.63;5095601;28;8877;-58
2023/08/29 05:49:18;;;;;;;;;12.00;12.00;;;;;13.68;73.68;99387.63;5095440;28;8856;-57
2023/08/29 05:51:46;;;;;;;;;19.25;18.00;;;;;13.70;73.51;99394.50;5094779;28;8861;-58
2023/08/29 05:54:14;;;;;;;;;18.50;17.00;;;;;13.75;73.42;99392.19;5094726;28;8846;-57
2023/08/29 05:56:42;;;;;;;;;19.25;16.50;;;;;13.78;73.21;99394.56;5094570;28;8826;-59
2023/08/29 05:59:09;;;;;;;;;14.75;14.50;;;;;13.83;73.21;99397.59;5094957;28;9499;-57
2023/08/29 06:01:37;;;;;;;;;18.50;16.50;;;;;13.88;72.80;99394.50;5094179;28;8850;-59
2023/08/29 06:04:05;;;;;;;;;15.00;15.00;;;;;13.90;73.28;99404.03;5094699;28;8973;-59
2023/08/29 06:06:33;;;;;;;;;12.50;12.00;;;;;13.95;72.96;99398.19;5094347;28;8931;-56
2023/08/29 06:09:02;;;;;;;;;12.00;12.00;;;;;13.99;72.81;99391.53;5094076;28;8887;-58
2023/08/29 06:11:29;;;;;;;;;17.50;14.50;;;;;14.05;72.80;99407.81;5094315;28;8830;-57
2023/08/29 06:13:57;;;;;;;;;18.67;18.67;;;;;14.09;72.73;99400.31;5093516;28;8865;-58
2023/08/29 06:16:25;;;;;;;;;13.00;11.00;;;;;14.12;72.70;99400.84;5093599;28;8862;-57
2023/08/29 06:18:52;;;;;;;;;16.50;14.00;;;;;14.17;72.81;99400.34;5094190;28;8834;-58
2023/08/29 06:21:20;;;;;;;;;22.00;18.25;;;;;14.23;72.66;99395.25;5093864;28;8837;-58
2023/08/29 06:23:48;;;;;;;;;12.25;12.00;;;;;14.28;72.67;99398.28;5093571;28;8846;-57
2023/08/29 06:26:17;;;;;;;;;19.00;17.25;;;;;14.33;72.66;99405.88;5094055;28;8950;-60
2023/08/29 06:28:44;;;;;;;;;19.00;17.00;;;;;14.39;72.21;99411.41;5095029;28;9479;-57
2023/08/29 06:31:12;;;;;;;;;22.50;19.50;;;;;14.46;72.65;99401.75;5094306;28;8861;-56
2023/08/29 06:33:40;;;;;;;;;19.00;17.25;;;;;14.54;72.19;99408.97;5094236;28;8834;-57
2023/08/29 06:36:08;;;;;;;;;23.75;21.50;;;;;14.59;71.96;99418.25;5093606;28;8884;-58
2023/08/29 06:38:36;;;;;;;;;21.50;19.75;;;;;14.64;72.25;99415.91;5093642;28;8911;-57
2023/08/29 06:41:04;;;;;;;;;20.00;18.50;;;;;14.70;71.89;99406.38;5093026;28;8834;-57
2023/08/29 06:43:32;;;;;;;;;11.75;10.00;;;;;14.78;72.36;99401.88;5092513;28;8864;-59
2023/08/29 06:46:00;;;;;;;;;21.50;19.00;;;;;14.85;72.09;99402.06;5091562;28;8846;-59
2023/08/29 06:48:27;;;;;;;;;15.00;14.50;;;;;14.87;71.43;99408.94;5091239;28;8826;-57
2023/08/29 06:50:55;;;;;;;;;13.50;12.25;;;;;14.93;71.52;99400.28;5091909;28;8860;-57
2023/08/29 06:53:26;;;;;;;;;14.00;12.75;;;;;14.99;71.77;99398.78;5091863;28;9532;-57
2023/08/29 06:55:54;;;;;;;;;17.25;16.25;;;;;15.05;71.26;99403.50;5092527;28;8822;-59
2023/08/29 06:58:21;;;;;;;;;21.00;18.50;;;;;15.12;71.69;99405.38;5092345;28;8968;-59
2023/08/29 07:00:49;;;;;;;;;17.00;15.25;;;;;15.19;71.27;99408.22;5093686;28;9539;-57
2023/08/29 07:03:17;;;;;;;;;16.00;15.00;;;;;15.24;71.11;99408.59;5093556;28;8968;-59
2023/08/29 07:05:45;;;;;;;;;19.00;17.50;;;;;15.29;71.05;99406.22;5092281;28;8886;-60
2023/08/29 07:08:13;;;;;;;;;13.00;13.00;;;;;15.32;71.48;99406.75;5092645;28;8981;-59
2023/08/29 07:10:41;;;;;;;;;12.00;12.00;;;;;15.36;71.03;99405.44;5092407;28;8830;-59
2023/08/29 07:13:09;;;;;;;;;12.00;10.00;;;;;15.40;71.21;99403.28;5092608;28;8952;-58
2023/08/29 07:15:38;;;;;;;;;18.50;17.50;;;;;15.45;71.25;99400.91;5092234;28;8838;-60
2023/08/29 07:18:06;;;;;;;;;18.00;16.00;;;;;15.47;70.88;99393.56;5092198;28;8826;-59
2023/08/29 07:20:34;;;;;;;;;20.25;18.50;;;;;15.51;70.82;99393.06;5093094;28;8932;-60
2023/08/29 07:23:02;;;;;;;;;16.00;14.00;;;;;15.57;70.84;99394.22;5092680;28;8829;-58
2023/08/29 07:25:31;;;;;;;;;20.00;18.00;;;;;15.60;70.64;99388.50;5092295;28;9573;-59
2023/08/29 07:27:59;;;;;;;;;24.00;20.00;;;;;15.65;70.69;99394.22;5091862;28;8858;-58
2023/08/29 07:30:26;;;;;;;;;24.50;21.50;;;;;15.67;70.81;99390.38;5092796;28;8825;-60
2023/08/29 07:32:54;;;;;;;;;25.75;23.25;;;;;15.72;71.40;99398.78;5093011;28;8956;-57
2023/08/29 07:35:22;;;;;;;;;29.00;22.50;;;;;15.79;70.99;99393.56;5092724;28;8834;-58
2023/08/29 07:37:51;;;;;;;;;27.50;25.25;;;;;15.86;71.01;99398.06;5093306;28;8891;-58
2023/08/29 07:40:19;;;;;;;;;24.25;21.25;;;;;15.94;70.31;99402.63;5092652;28;8846;-59
2023/08/29 07:42:47;;;;;;;;;24.50;21.00;;;;;15.99;70.33;99400.28;5092507;28;8838;-59
2023/08/29 07:45:14;;;;;;;;;16.00;12.75;;;;;16.05;70.75;99400.44;5093027;28;8957;-59
2023/08/29 07:47:42;;;;;;;;;23.00;21.00;;;;;16.10;70.04;99398.06;5092058;28;8896;-58
2023/08/29 07:50:10;;;;;;;;;27.75;24.50;;;;;16.16;70.69;99397.38;5092211;28;8903;-59
2023/08/29 07:52:38;;;;;;;;;31.25;23.50;;;;;16.20;69.87;99404.91;5091548;28;8860;-60
2023/08/29 07:55:08;;;;;;;;;21.25;17.75;;;;;16.28;70.34;99396.03;5091985;28;9567;-58
2023/08/29 07:57:36;;;;;;;;;22.00;20.25;;;;;16.33;69.74;99405.22;5092209;28;8841;-60
2023/08/29 08:00:05;;;;;;;;;14.50;13.00;;;;;16.40;69.90;99400.06;5092767;28;9737;-58
2023/08/29 08:02:38;;;;;;;;;27.50;25.50;;;;;16.47;70.23;99401.88;5092110;28;9597;-60
2023/08/29 08:05:06;;;;;;;;;27.50;25.50;;;;;16.55;69.62;99409.91;5091918;28;8825;-59
2023/08/29 08:07:34;;;;;;;;;29.25;25.25;;;;;16.61;69.56;99414.59;5091996;28;8868;-60
2023/08/29 08:10:04;;;;;;;;;27.00;23.25;;;;;16.66;69.68;99412.25;5091256;28;8964;-58
2023/08/29 08:12:32;;;;;;;;;22.00;20.00;;;;;16.73;69.71;99415.91;5092203;28;8826;-60
2023/08/29 08:15:00;;;;;;;;;24.50;21.75;;;;;16.78;69.54;99412.72;5090680;28;8826;-58
2023/08/29 08:17:27;;;;;;;;;27.75;24.50;;;;;16.85;69.27;99425.28;5091840;28;8845;-58
2023/08/29 08:19:55;;;;;;;;;27.75;25.25;;;;;16.90;69.00;99420.22;5091743;28;8988;-58
2023/08/29 08:22:23;;;;;;;;;36.00;33.00;;;;;16.96;69.20;99422.22;5092075;28;8966;-60
2023/08/29 08:24:51;;;;;;;;;31.75;26.00;;;;;17.02;68.91;99424.19;5093194;28;8834;-59
2023/08/29 08:27:19;;;;;;;;;31.00;27.00;;;;;17.13;69.25;99431.03;5092536;28;8846;-60
2023/08/29 08:29:47;;;;;;;;;29.50;26.50;;;;;17.19;68.38;99420.41;5092702;28;8818;-57
2023/08/29 08:32:15;;;;;;;;;35.25;30.50;;;;;17.25;68.84;99425.06;5092555;28;8822;-59
2023/08/29 08:34:43;;;;;;;;;30.25;26.50;;;;;17.34;68.71;99428.56;5092389;28;8826;-57
2023/08/29 08:37:11;;;;;;;;;23.00;23.00;;;;;17.42;68.73;99432.09;5092731;28;8954;-58
2023/08/29 08:39:38;;;;;;;;;20.50;18.50;;;;;17.55;68.29;99428.81;5092820;28;8917;-60
2023/08/29 08:42:06;;;;;;;;;33.00;28.00;;;;;17.65;68.39;99435.63;5092925;28;8972;-58
2023/08/29 08:44:34;;;;;;;;;23.00;20.00;;;;;17.68;68.39;99437.13;5092871;28;8818;-60
2023/08/29 08:47:02;;;;;;;;;34.50;29.75;;;;;17.71;68.01;99443.00;5092157;28;8846;-60
2023/08/29 08:49:30;;;;;;;;;36.75;32.00;;;;;17.77;67.99;99442.25;5091605;28;8961;-58
2023/08/29 08:51:58;;;;;;;;;24.00;22.00;;;;;17.84;67.55;99440.53;5092424;28;8840;-60
2023/08/29 08:54:25;;;;;;;;;34.50;28.50;;;;;17.84;67.69;99442.41;5092359;28;8826;-59
2023/08/29 08:56:57;;;;;;;;;31.25;30.00;;;;;17.81;68.11;99443.59;5092499;28;8918;-57
2023/08/29 08:59:25;;;;;;;;;34.00;29.00;;;;;17.75;68.26;99444.31;5094677;28;8910;-60
2023/08/29 09:01:53;;;;;;;;;34.25;28.00;;;;;17.68;68.62;99446.03;5095281;28;8982;-58
2023/08/29 09:04:22;;;;;;;;;35.00;30.50;;;;;17.58;68.68;99445.44;5095483;28;8837;-57
2023/08/29 09:06:50;;;;;;;;;29.00;27.25;;;;;17.48;68.76;99446.69;5095855;28;9484;-57
2023/08/29 09:09:19;;;;;;;;;24.50;21.75;;;;;17.41;69.29;99445.72;5095361;28;8818;-58
2023/08/29 09:11:47;;;;;;;;;25.00;23.50;;;;;17.37;69.34;99447.91;5095307;28;8845;-58
2023/08/29 09:14:16;;;;;;;;;32.50;28.00;;;;;17.37;69.12;99447.06;5095319;28;8849;-58
2023/08/29 09:16:44;;;;;;;;;33.50;29.00;;;;;17.37;69.33;99449.75;5095030;28;8907;-57
2023/08/29 09:19:13;;;;;;;;;25.50;24.50;;;;;17.38;69.19;99446.91;5093713;28;8844;-59
2023/08/29 09:21:40;;;;;;;;;33.75;27.00;;;;;17.39;69.27;99451.28;5094039;28;8844;-57
2023/08/29 09:24:09;;;;;;;;;32.75;29.50;;;;;17.42;69.90;99448.25;5094026;28;8838;-58
2023/08/29 09:26:37;;;;;;;;;32.00;28.75;;;;;17.47;69.01;99445.84;5093939;28;8841;-58
2023/08/29 09:29:04;;;;;;;;;34.75;31.00;;;;;17.51;69.14;99447.16;5095184;28;8826;-60
2023/08/29 09:31:32;;;;;;;;;36.00;33.75;;;;;17.56;69.11;99442.09;5095666;28;8850;-57
2023/08/29 09:34:00;;;;;;;;;32.25;28.25;;;;;17.65;69.02;99446.41;5095639;28;9546;-60
2023/08/29 09:36:30;;;;;;;;;28.00;25.00;;;;;17.75;68.17;99451.56;5095466;28;8822;-58
2023/08/29 09:38:58;;;;;;;;;26.60;23.00;;;;;17.83;68.31;99449.63;5095463;28;9809;-58
2023/08/29 09:41:27;;;;;;;;;23.40;21.20;;;;;17.92;68.82;99448.53;5095029;28;8952;-59
2023/08/29 09:43:55;;;;;;;;;38.40;34.60;;;;;18.04;68.52;99449.81;5095258;28;8918;-58
2023/08/29 09:46:23;;;;;;;;;34.50;30.50;;;;;18.18;68.03;99445.47;5095695;28;8938;-58
2023/08/29 09:48:51;;;;;;;;;26.20;23.00;;;;;18.31;67.73;99437.63;5095117;28;8840;-59
2023/08/29 09:51:22;;;;;;;;;27.25;19.00;;;;;18.50;67.39;99440.63;5095281;28;8825;-59
2023/08/29 09:53:49;;;;;;;;;39.00;31.00;;;;;18.68;67.23;99441.09;5095268;28;8834;-58
2023/08/29 09:56:17;;;;;;;;;32.40;30.40;;;;;18.86;66.50;99444.28;5094750;28;8822;-58
2023/08/29 09:58:46;;;;;;;;;25.20;22.00;;;;;18.99;66.81;99430.13;5094972;28;8837;-58
2023/08/29 10:01:14;;;;;;;;;31.20;30.60;;;;;19.08;66.63;99429.84;5094878;28;8838;-58
2023/08/29 10:03:42;;;;;;;;;35.60;33.40;;;;;19.23;66.45;99427.13;5095086;28;8864;-57
2023/08/29 10:06:10;;;;;;;;;31.40;28.60;;;;;19.42;65.87;99424.66;5095344;28;8822;-58
2023/08/29 10:08:38;;;;;;;;;27.60;24.60;;;;;19.61;65.23;99420.50;5094953;28;8830;-60
2023/08/29 10:11:06;;;;;;;;;26.80;24.80;;;;;19.80;65.42;99422.59;5093329;28;8845;-58
2023/08/29 10:13:34;;;;;;;;;25.00;22.60;;;;;19.92;65.02;99416.47;5093982;28;8930;-58
2023/08/29 10:16:03;;;;;;;;;33.40;30.00;;;;;20.03;64.60;99415.94;5094141;28;8919;-60
2023/08/29 10:18:31;;;;;;;;;27.60;24.20;;;;;20.04;65.04;99416.78;5094116;28;8844;-58
2023/08/29 10:21:00;;;;;;;;;32.20;28.20;;;;;20.40;63.94;99410.22;5094697;28;8902;-58
2023/08/29 10:23:30;;;;;;;;;35.20;26.80;;;;;21.11;62.17;99409.84;5094676;28;8830;-61
2023/08/29 10:26:00;;;;;;;;;33.80;28.20;;;;;21.92;61.10;99405.09;5094371;28;8833;-58
2023/08/29 10:28:27;;;;;;;;;31.60;27.60;;;;;22.57;59.60;99402.41;5093888;28;8817;-58
2023/08/29 10:30:56;;;;;;;;;29.60;27.00;;;;;22.82;59.77;99405.25;5094801;28;8838;-58
2023/08/29 10:33:24;;;;;;;;;31.20;30.40;;;;;22.76;59.94;99406.94;5094530;28;8980;-58
2023/08/29 10:35:52;;;;;;;;;23.00;18.60;;;;;22.84;59.92;99403.16;5094391;28;8876;-58
2023/08/29 10:38:20;;;;;;;;;28.80;26.20;;;;;22.82;60.19;99399.81;5093424;28;8876;-58
2023/08/29 10:40:48;;;;;;;;;28.80;25.40;;;;;22.78;59.93;99404.84;5093187;28;8836;-59
2023/08/29 10:43:17;;;;;;;;;26.00;22.80;;;;;23.07;59.86;99398.06;5093583;28;8905;-58
2023/08/29 10:45:45;;;;;;;;;32.60;28.60;;;;;23.19;59.59;99396.38;5092838;28;8846;-57
2023/08/29 10:48:13;;;;;;;;;28.40;27.60;;;;;23.13;59.60;99395.31;5093826;28;8830;-60
2023/08/29 10:50:41;;;;;;;;;26.20;22.60;;;;;23.49;59.16;99397.47;5093830;28;9663;-59
2023/08/29 10:53:09;;;;;;;;;31.40;28.20;;;;;24.09;58.49;99389.56;5093406;28;8964;-59
2023/08/29 10:55:41;;;;;;;;;27.40;25.00;;;;;24.46;57.40;99385.91;5093745;28;8830;-59
2023/08/29 10:58:09;;;;;;;;;25.80;23.80;;;;;24.60;57.29;99382.03;5092797;28;8830;-60
2023/08/29 11:00:37;;;;;;;;;25.40;23.00;;;;;24.71;57.13;99380.44;5092178;28;8830;-58
2023/08/29 11:03:05;;;;;;;;;27.20;23.60;;;;;24.76;57.39;99378.69;5092673;28;8850;-60
2023/08/29 11:05:33;;;;;;;;;27.20;25.20;;;;;24.54;57.89;99377.44;5092273;28;8849;-59
2023/08/29 11:08:02;;;;;;;;;22.60;22.60;;;;;24.77;57.47;99376.78;5091949;28;8825;-59
2023/08/29 11:10:31;;;;;;;;;23.00;21.20;;;;;25.20;56.81;99372.09;5092302;28;8849;-59
2023/08/29 11:12:58;;;;;;;;;20.80;19.60;;;;;25.15;56.84;99369.19;5092814;28;8854;-58
2023/08/29 11:15:26;;;;;;;;;23.80;21.20;;;;;24.84;57.56;99363.94;5092876;28;8826;-59
2023/08/29 11:17:54;;;;;;;;;24.20;20.20;;;;;24.32;58.54;99364.44;5092543;28;8838;-58
2023/08/29 11:20:22;;;;;;;;;22.80;21.20;;;;;23.87;59.55;99371.94;5092248;28;8907;-58
2023/08/29 11:22:52;;;;;;;;;22.80;22.40;;;;;23.59;60.35;99370.66;5091717;28;8846;-59
2023/08/29 11:25:20;;;;;;;;;26.20;23.00;;;;;23.44;60.73;99361.97;5091734;28;8956;-59
2023/08/29 11:27:49;;;;;;;;;17.80;15.40;;;;;24.01;59.45;99351.75;5091578;28;8826;-58
2023/08/29 11:30:17;;;;;;;;;23.40;19.20;;;;;24.81;57.79;99353.50;5090891;28;8842;-60